createdAt,value
2023-02-22T00:01:02.926Z,7.10
2023-02-22T00:03:34.960Z,7.70
2023-02-22T00:06:04.986Z,6.80
2023-02-22T00:08:35.687Z,7.60
2023-02-22T00:11:08.360Z,8.80
2023-02-22T00:13:39.005Z,8.60
2023-02-22T00:16:06.753Z,7.30
2023-02-22T00:18:34.132Z,7.80
2023-02-22T00:21:01.723Z,7.70
2023-02-22T00:23:31.772Z,7.90
2023-02-22T00:25:59.973Z,8.70
2023-02-22T00:28:27.496Z,8.80
2023-02-22T00:30:55.037Z,8.30
2023-02-22T00:33:23.322Z,8.30
2023-02-22T00:35:50.850Z,7.80
2023-02-22T00:38:18.908Z,7.70
2023-02-22T00:40:46.574Z,7.60
2023-02-22T00:43:14.259Z,8.90
2023-02-22T00:45:42.522Z,8.60
2023-02-22T00:48:10.651Z,8.00
2023-02-22T00:50:38.224Z,8.00
2023-02-22T00:53:07.239Z,7.10
2023-02-22T00:55:36.558Z,9.00
2023-02-22T00:58:04.989Z,8.70
2023-02-22T01:00:36.347Z,8.10
2023-02-22T01:03:08.103Z,8.20
2023-02-22T01:05:35.632Z,8.40
2023-02-22T01:08:09.666Z,7.80
2023-02-22T01:10:38.162Z,7.90
2023-02-22T01:13:09.173Z,8.00
2023-02-22T01:15:38.888Z,7.30
2023-02-22T01:18:06.840Z,8.30
2023-02-22T01:20:34.342Z,8.90
2023-02-22T01:23:03.620Z,7.40
2023-02-22T01:25:31.764Z,6.90
2023-02-22T01:28:00.713Z,8.30
2023-02-22T01:30:32.776Z,7.30
2023-02-22T01:33:02.322Z,7.80
2023-02-22T01:38:00.373Z,8.90
2023-02-22T01:40:34.495Z,7.60
2023-02-22T01:43:13.969Z,8.60
2023-02-22T01:45:49.063Z,7.70
2023-02-22T01:48:19.794Z,8.60
2023-02-22T01:50:53.898Z,8.70
2023-02-22T01:53:25.421Z,7.80
2023-02-22T01:55:55.035Z,8.00
2023-02-22T01:58:24.455Z,7.90
2023-02-22T02:00:51.916Z,8.70
2023-02-22T02:03:27.477Z,7.70
2023-02-22T02:05:57.754Z,8.00
2023-02-22T02:08:49.794Z,8.00
2023-02-22T02:11:21.173Z,8.80
2023-02-22T02:13:57.139Z,8.90
2023-02-22T02:16:27.763Z,8.10
2023-02-22T02:18:55.210Z,8.00
2023-02-22T02:21:24.097Z,8.70
2023-02-22T02:24:44.928Z,8.70
2023-02-22T02:27:16.748Z,7.10
2023-02-22T02:29:59.348Z,8.70
2023-02-22T02:32:55.495Z,8.60
2023-02-22T02:35:55.643Z,9.00
2023-02-22T02:38:32.122Z,8.80
2023-02-22T02:41:10.787Z,7.80
2023-02-22T02:43:44.291Z,7.40
2023-02-22T02:46:14.425Z,8.70
2023-02-22T02:48:48.237Z,8.20
2023-02-22T02:51:16.498Z,6.50
2023-02-22T02:53:46.457Z,8.00
2023-02-22T02:56:13.962Z,8.30
2023-02-22T02:58:49.056Z,6.80
2023-02-22T03:01:22.864Z,7.10
2023-02-22T03:04:03.461Z,8.80
2023-02-22T03:07:03.491Z,7.50
2023-02-22T03:09:37.560Z,7.60
2023-02-22T03:12:10.235Z,7.50
2023-02-22T03:14:48.145Z,8.30
2023-02-22T03:17:23.605Z,7.30
2023-02-22T03:19:58.287Z,8.30
2023-02-22T03:22:33.850Z,7.20
2023-02-22T03:25:08.590Z,7.30
2023-02-22T03:27:46.425Z,6.70
2023-02-22T03:30:26.101Z,7.90
2023-02-22T03:33:00.594Z,6.80
2023-02-22T03:35:35.595Z,7.10
2023-02-22T03:38:08.158Z,7.20
2023-02-22T03:40:38.548Z,7.90
2023-02-22T03:43:15.992Z,7.40
2023-02-22T03:45:46.965Z,6.60
2023-02-22T03:48:47.944Z,6.90
2023-02-22T03:51:17.761Z,7.60
2023-02-22T03:53:50.344Z,7.60
2023-02-22T03:56:26.561Z,7.10
2023-02-22T03:58:55.162Z,7.60
2023-02-22T04:01:23.769Z,7.80
2023-02-22T04:03:51.476Z,6.90
2023-02-22T04:06:19.056Z,7.50
2023-02-22T04:08:47.430Z,7.90
2023-02-22T04:11:15.399Z,7.40
2023-02-22T04:13:43.209Z,8.40
2023-02-22T04:16:10.845Z,7.30
2023-02-22T04:18:38.339Z,7.00
2023-02-22T04:21:06.877Z,8.60
2023-02-22T04:23:39.147Z,8.80
2023-02-22T04:26:06.996Z,7.30
2023-02-22T04:28:34.468Z,7.10
2023-02-22T04:31:15.944Z,7.50
2023-02-22T04:33:44.294Z,8.80
2023-02-22T04:36:16.093Z,7.40
2023-02-22T04:41:13.294Z,8.80
2023-02-22T04:43:40.733Z,7.10
2023-02-22T04:46:23.460Z,7.20
2023-02-22T04:48:53.594Z,7.50
2023-02-22T04:51:24.328Z,7.60
2023-02-22T04:53:59.698Z,7.90
2023-02-22T04:56:30.362Z,6.50
2023-02-22T04:59:23.261Z,8.40
2023-02-22T05:01:56.526Z,8.30
2023-02-22T05:04:24.983Z,7.80
2023-02-22T05:06:54.975Z,7.20
2023-02-22T05:09:22.517Z,7.80
2023-02-22T05:11:49.873Z,7.30
2023-02-22T05:14:17.240Z,8.50
2023-02-22T05:16:44.857Z,7.40
2023-02-22T05:19:12.235Z,8.80
2023-02-22T05:21:41.650Z,8.50
2023-02-22T05:24:09.029Z,7.20
2023-02-22T05:26:36.401Z,8.50
2023-02-22T05:29:03.840Z,8.00
2023-02-22T05:31:31.275Z,7.80
2023-02-22T05:33:58.696Z,8.60
2023-02-22T05:36:26.351Z,7.10
2023-02-22T05:38:54.534Z,7.20
2023-02-22T05:41:22.380Z,7.30
2023-02-22T05:43:49.791Z,6.70
2023-02-22T05:46:17.250Z,7.50
2023-02-22T05:48:44.618Z,8.30
2023-02-22T05:51:12.107Z,6.00
2023-02-22T05:53:39.569Z,7.20
2023-02-22T05:56:07.077Z,7.30
2023-02-22T05:58:34.451Z,7.20
2023-02-22T06:01:03.342Z,6.30
2023-02-22T06:03:30.896Z,7.70
2023-02-22T06:06:05.400Z,7.30
2023-02-22T06:08:32.749Z,7.30
2023-02-22T06:11:00.110Z,7.30
2023-02-22T06:13:27.622Z,7.50
2023-02-22T06:15:59.039Z,7.50
2023-02-22T06:18:26.761Z,7.70
2023-02-22T06:20:54.135Z,7.60
2023-02-22T06:23:21.505Z,7.00
2023-02-22T06:25:49.052Z,7.60
2023-02-22T06:30:44.404Z,7.60
2023-02-22T06:33:12.006Z,6.90
2023-02-22T06:35:45.402Z,7.90
2023-02-22T06:38:21.473Z,7.10
2023-02-22T06:40:48.850Z,7.10
2023-02-22T06:43:16.714Z,6.30
2023-02-22T06:45:44.086Z,7.40
2023-02-22T06:48:11.510Z,7.50
2023-02-22T06:50:38.951Z,7.60
2023-02-22T06:53:06.457Z,6.90
2023-02-22T06:55:34.411Z,7.40
2023-02-22T06:58:04.688Z,6.90
2023-02-22T07:00:32.496Z,7.20
2023-02-22T07:03:00.291Z,7.40
2023-02-22T07:05:27.973Z,7.80
2023-02-22T07:08:02.252Z,6.70
2023-02-22T07:10:31.946Z,7.50
2023-02-22T07:12:59.651Z,7.60
2023-02-22T07:15:29.449Z,6.90
2023-02-22T07:18:01.876Z,7.50
2023-02-22T07:20:30.493Z,7.60
2023-02-22T07:22:57.850Z,8.60
2023-02-22T07:25:26.044Z,6.80
2023-02-22T07:27:53.564Z,7.90
2023-02-22T07:30:28.005Z,7.50
2023-02-22T07:32:55.928Z,7.10
2023-02-22T07:35:36.717Z,6.90
2023-02-22T07:38:06.095Z,7.60
2023-02-22T07:40:59.366Z,7.30
2023-02-22T07:43:28.994Z,7.40
2023-02-22T07:45:58.814Z,8.00
2023-02-22T07:48:28.344Z,7.30
2023-02-22T07:50:59.999Z,8.70
2023-02-22T07:53:30.937Z,8.20
2023-02-22T07:56:01.087Z,8.30
2023-02-22T07:58:30.838Z,8.20
2023-02-22T08:01:05.597Z,7.70
2023-02-22T08:03:36.653Z,8.00
2023-02-22T08:06:05.955Z,7.80
2023-02-22T08:08:59.083Z,8.40
2023-02-22T08:11:26.877Z,8.00
2023-02-22T08:13:54.228Z,8.50
2023-02-22T08:16:21.633Z,8.80
2023-02-22T08:19:14.047Z,8.50
2023-02-22T08:21:50.546Z,8.60
2023-02-22T08:24:17.914Z,8.80
2023-02-22T08:26:48.518Z,8.20
2023-02-22T08:29:15.925Z,8.80
2023-02-22T08:31:50.514Z,8.20
2023-02-22T08:34:43.371Z,8.80
2023-02-22T08:37:11.076Z,8.20
2023-02-22T08:39:38.410Z,8.30
2023-02-22T08:42:11.865Z,9.10
2023-02-22T08:44:39.943Z,9.40
2023-02-22T08:47:08.797Z,9.30
2023-02-22T08:49:36.345Z,8.40
2023-02-22T08:52:04.133Z,8.50
2023-02-22T08:54:31.505Z,8.50
2023-02-22T08:59:50.626Z,9.00
2023-02-22T09:02:20.373Z,8.20
2023-02-22T09:04:48.707Z,8.10
2023-02-22T09:07:42.034Z,9.80
2023-02-22T09:12:44.276Z,9.90
2023-02-22T09:15:12.109Z,8.50
2023-02-22T09:17:39.562Z,9.10
2023-02-22T09:20:08.196Z,10.20
2023-02-22T09:22:35.565Z,9.10
2023-02-22T09:27:55.474Z,10.20
2023-02-22T09:30:34.405Z,11.10
2023-02-22T09:33:09.934Z,8.70
2023-02-22T09:35:42.108Z,9.30
2023-02-22T09:38:12.691Z,9.80
2023-02-22T09:40:47.491Z,9.00
2023-02-22T09:43:27.573Z,10.10
2023-02-22T09:46:02.517Z,10.70
2023-02-22T09:48:34.222Z,9.70
2023-02-22T09:51:03.178Z,11.10
2023-02-22T09:53:41.622Z,10.60
2023-02-22T09:56:11.634Z,10.00
2023-02-22T09:58:43.005Z,10.70
2023-02-22T10:01:19.206Z,10.20
2023-02-22T10:04:20.006Z,10.40
2023-02-22T10:07:05.853Z,12.00
2023-02-22T10:09:38.716Z,10.30
2023-02-22T10:12:12.724Z,10.30
2023-02-22T10:14:52.005Z,11.70
2023-02-22T10:17:42.597Z,10.20
2023-02-22T10:20:16.117Z,11.90
2023-02-22T10:25:22.208Z,9.90
2023-02-22T10:28:03.756Z,11.30
2023-02-22T10:30:41.934Z,11.40
2023-02-22T10:33:19.083Z,11.70
2023-02-22T10:35:47.354Z,11.90
2023-02-22T10:38:20.144Z,12.00
2023-02-22T10:40:54.978Z,12.70
2023-02-22T10:43:23.467Z,13.30
2023-02-22T10:45:55.211Z,11.90
2023-02-22T10:48:24.756Z,11.70
2023-02-22T10:50:54.674Z,13.60
2023-02-22T10:53:22.788Z,12.60
2023-02-22T10:56:13.023Z,13.40
2023-02-22T10:58:49.609Z,13.10
2023-02-22T11:01:41.750Z,12.70
2023-02-22T11:04:15.804Z,13.80
2023-02-22T11:06:45.815Z,14.10
2023-02-22T11:09:18.018Z,11.80
2023-02-22T11:11:47.517Z,13.70
2023-02-22T11:14:31.060Z,13.30
2023-02-22T11:16:59.509Z,13.60
2023-02-22T11:19:29.199Z,13.40
2023-02-22T11:21:59.129Z,13.80
2023-02-22T11:24:30.244Z,14.20
2023-02-22T11:27:02.958Z,14.90
2023-02-22T11:29:36.220Z,13.00
2023-02-22T11:32:14.946Z,14.30
2023-02-22T11:34:42.727Z,13.50
2023-02-22T11:37:18.058Z,15.30
2023-02-22T11:39:45.909Z,14.30
2023-02-22T11:42:27.487Z,15.80
2023-02-22T11:45:21.372Z,13.50
2023-02-22T11:47:59.016Z,15.70
2023-02-22T11:50:46.496Z,15.60
2023-02-22T11:53:37.228Z,16.00
2023-02-22T11:56:07.993Z,16.00
2023-02-22T11:59:07.994Z,16.10
2023-02-22T12:01:41.621Z,15.80
2023-02-22T12:04:22.671Z,16.40
2023-02-22T12:07:30.121Z,16.30
2023-02-22T12:10:12.822Z,16.60
2023-02-22T12:15:13.668Z,17.60
2023-02-22T12:18:00.149Z,18.30
2023-02-22T12:20:39.600Z,16.50
2023-02-22T12:23:19.491Z,16.90
2023-02-22T12:26:05.744Z,17.70
2023-02-22T12:28:59.406Z,17.90
2023-02-22T12:31:34.038Z,17.00
2023-02-22T12:34:09.432Z,18.70
2023-02-22T12:37:02.540Z,18.10
2023-02-22T12:39:52.236Z,17.70
2023-02-22T12:42:48.255Z,19.00
2023-02-22T12:45:29.603Z,18.10
2023-02-22T12:48:07.959Z,20.40
2023-02-22T12:50:37.661Z,20.50
2023-02-22T12:53:21.611Z,20.70
2023-02-22T12:56:00.540Z,20.70
2023-02-22T12:59:21.737Z,20.70
2023-02-22T13:01:57.063Z,21.20
2023-02-22T13:04:26.035Z,22.20
2023-02-22T13:07:21.403Z,22.90
2023-02-22T13:10:16.765Z,22.70
2023-02-22T13:13:04.729Z,22.40
2023-02-22T13:18:33.656Z,21.80
2023-02-22T13:21:22.305Z,20.90
2023-02-22T13:24:03.689Z,20.50
2023-02-22T13:26:37.418Z,21.40
2023-02-22T13:29:16.624Z,21.30
2023-02-22T13:32:21.863Z,20.80
2023-02-22T13:35:23.432Z,20.50
2023-02-22T13:38:06.099Z,20.50
2023-02-22T13:40:47.771Z,20.90
2023-02-22T13:43:25.215Z,20.50
2023-02-22T13:46:02.964Z,20.80
2023-02-22T13:48:30.312Z,20.40
2023-02-22T13:51:08.905Z,21.00
2023-02-22T13:56:12.941Z,19.40
2023-02-22T13:58:54.258Z,20.40
2023-02-22T14:01:46.264Z,20.40
2023-02-22T14:04:22.045Z,19.50
2023-02-22T14:06:49.565Z,20.20
2023-02-22T14:09:47.146Z,20.30
2023-02-22T14:12:29.980Z,18.50
2023-02-22T14:15:21.998Z,19.10
2023-02-22T14:17:56.983Z,20.30
2023-02-22T14:20:36.646Z,18.60
2023-02-22T14:23:31.636Z,20.00
2023-02-22T14:26:10.366Z,17.30
2023-02-22T14:28:53.077Z,18.10
2023-02-22T14:31:35.503Z,17.20
2023-02-22T14:34:19.756Z,19.20
2023-02-22T14:37:05.196Z,17.80
2023-02-22T14:39:38.454Z,18.60
2023-02-22T14:42:08.739Z,17.60
2023-02-22T14:44:43.845Z,17.80
2023-02-22T14:47:21.233Z,18.60
2023-02-22T14:49:52.564Z,17.00
2023-02-22T14:52:24.982Z,17.90
2023-02-22T14:54:59.888Z,17.40
2023-02-22T14:57:59.374Z,18.80
2023-02-22T15:00:41.832Z,15.80
2023-02-22T15:03:24.363Z,17.90
2023-02-22T15:05:51.787Z,16.60
2023-02-22T15:08:28.107Z,15.20
2023-02-22T15:10:55.502Z,16.20
2023-02-22T15:13:25.734Z,16.30
2023-02-22T15:16:01.890Z,16.50
2023-02-22T15:18:34.464Z,16.30
2023-02-22T15:21:07.125Z,17.90
2023-02-22T15:23:46.053Z,16.20
2023-02-22T15:26:23.991Z,16.10
2023-02-22T15:28:59.353Z,16.50
2023-02-22T15:31:38.866Z,16.10
2023-02-22T15:34:15.750Z,16.50
2023-02-22T15:36:46.685Z,17.70
2023-02-22T15:39:27.181Z,15.30
2023-02-22T15:42:19.110Z,15.30
2023-02-22T15:44:48.170Z,16.10
2023-02-22T15:47:21.081Z,15.90
2023-02-22T15:50:20.984Z,15.60
2023-02-22T15:53:13.548Z,13.70
2023-02-22T15:55:43.636Z,15.60
2023-02-22T15:58:28.634Z,14.50
2023-02-22T16:01:07.324Z,15.70
2023-02-22T16:03:44.687Z,13.70
2023-02-22T16:11:34.588Z,15.40
2023-02-22T16:14:05.909Z,13.30
2023-02-22T16:16:35.484Z,14.00
2023-02-22T16:19:32.846Z,14.10
2023-02-22T16:22:03.143Z,14.20
2023-02-22T16:24:35.560Z,13.50
2023-02-22T16:27:10.428Z,13.10
2023-02-22T16:29:37.901Z,12.30
2023-02-22T16:32:06.556Z,13.50
2023-02-22T16:34:34.693Z,13.10
2023-02-22T16:37:03.236Z,12.10
2023-02-22T16:39:35.928Z,12.40
2023-02-22T16:42:05.024Z,12.80
2023-02-22T16:44:34.580Z,12.60
2023-02-22T16:47:02.013Z,11.70
2023-02-22T16:49:29.685Z,12.40
2023-02-22T16:52:01.325Z,12.30
2023-02-22T16:54:30.880Z,12.40
2023-02-22T16:57:02.022Z,11.20
2023-02-22T16:59:37.675Z,11.70
2023-02-22T17:02:07.648Z,12.10
2023-02-22T17:04:35.188Z,10.30
2023-02-22T17:07:05.045Z,10.80
2023-02-22T17:09:32.949Z,12.20
2023-02-22T17:12:01.502Z,10.60
2023-02-22T17:14:32.215Z,11.70
2023-02-22T17:17:00.659Z,10.00
2023-02-22T17:19:28.095Z,10.60
2023-02-22T17:21:55.608Z,12.10
2023-02-22T17:24:24.237Z,10.30
2023-02-22T17:26:54.641Z,11.20
2023-02-22T17:29:22.579Z,9.50
2023-02-22T17:31:50.411Z,10.40
2023-02-22T17:34:17.962Z,11.60
2023-02-22T17:36:45.642Z,11.00
2023-02-22T17:39:14.088Z,9.50
2023-02-22T17:41:41.500Z,10.80
2023-02-22T17:44:13.124Z,10.60
2023-02-22T17:46:43.512Z,10.90
2023-02-22T17:51:41.324Z,10.60
2023-02-22T17:54:10.367Z,8.20
2023-02-22T17:56:37.940Z,10.30
2023-02-22T17:59:09.042Z,10.50
2023-02-22T18:01:37.754Z,8.50
2023-02-22T18:04:06.279Z,10.50
2023-02-22T18:06:33.863Z,11.00
2023-02-22T18:09:01.775Z,10.40
2023-02-22T18:11:32.414Z,8.50
2023-02-22T18:14:00.890Z,9.50
2023-02-22T18:16:28.574Z,9.10
2023-02-22T18:18:56.429Z,8.90
2023-02-22T18:21:24.330Z,8.60
2023-02-22T18:23:51.807Z,9.90
2023-02-22T18:26:21.107Z,10.50
2023-02-22T18:28:49.047Z,8.50
2023-02-22T18:31:18.581Z,9.10
2023-02-22T18:33:49.509Z,8.40
2023-02-22T18:36:22.592Z,9.40
2023-02-22T18:38:52.333Z,9.40
2023-02-22T18:41:21.558Z,8.90
2023-02-22T18:43:50.855Z,8.90
2023-02-22T18:46:20.463Z,8.30
2023-02-22T18:48:51.349Z,9.20
2023-02-22T18:51:18.864Z,9.10
2023-02-22T18:53:47.935Z,9.20
2023-02-22T18:56:21.458Z,8.50
2023-02-22T18:58:53.560Z,9.00
2023-02-22T19:01:21.961Z,9.30
2023-02-22T19:03:51.475Z,8.70
2023-02-22T19:06:21.811Z,8.80
2023-02-22T19:08:50.586Z,8.90
2023-02-22T19:11:21.617Z,8.90
2023-02-22T19:13:52.036Z,8.80
2023-02-22T19:16:21.729Z,9.20
2023-02-22T19:18:52.270Z,9.20
2023-02-22T19:21:20.328Z,9.00
2023-02-22T19:23:48.844Z,8.90
2023-02-22T19:26:19.147Z,9.30
2023-02-22T19:31:19.409Z,7.40
2023-02-22T19:36:16.436Z,8.40
2023-02-22T19:38:45.776Z,7.20
2023-02-22T19:41:18.079Z,7.50
2023-02-22T19:43:47.202Z,8.80
2023-02-22T19:46:17.736Z,7.20
2023-02-22T19:48:45.449Z,7.60
2023-02-22T19:51:14.221Z,7.70
2023-02-22T19:53:42.602Z,7.60
2023-02-22T19:56:13.527Z,7.30
2023-02-22T19:58:41.561Z,7.50
2023-02-22T20:01:12.363Z,6.50
2023-02-22T20:03:41.764Z,7.30
2023-02-22T20:06:11.417Z,7.60
2023-02-22T20:08:42.097Z,7.60
2023-02-22T20:11:10.785Z,6.90
2023-02-22T20:13:38.732Z,7.10
2023-02-22T20:16:06.955Z,7.40
2023-02-22T20:21:10.375Z,7.30
2023-02-22T20:23:40.579Z,7.10
2023-02-22T20:26:14.176Z,5.90
2023-02-22T20:28:41.706Z,6.60
2023-02-22T20:31:11.234Z,6.60
2023-02-22T20:33:41.582Z,5.90
2023-02-22T20:36:17.901Z,6.00
2023-02-22T20:38:45.575Z,6.90
2023-02-22T20:41:21.290Z,5.60
2023-02-22T20:43:53.045Z,6.50
2023-02-22T20:46:20.710Z,6.50
2023-02-22T20:48:48.063Z,6.60
2023-02-22T20:51:15.613Z,6.70
2023-02-22T20:53:44.856Z,6.50
2023-02-22T20:56:17.392Z,5.00
2023-02-22T20:58:45.960Z,6.00
2023-02-22T21:01:19.579Z,6.00
2023-02-22T21:03:48.017Z,7.20
2023-02-22T21:06:17.565Z,5.60
2023-02-22T21:08:49.253Z,6.20
2023-02-22T21:11:18.198Z,6.30
2023-02-22T21:13:45.896Z,6.90
2023-02-22T21:16:24.046Z,5.40
2023-02-22T21:18:53.958Z,6.10
2023-02-22T21:21:22.431Z,7.30
2023-02-22T21:23:52.595Z,5.10
2023-02-22T21:26:24.956Z,6.30
2023-02-22T21:28:53.264Z,6.20
2023-02-22T21:31:24.123Z,5.70
2023-02-22T21:33:57.227Z,6.00
2023-02-22T21:36:25.832Z,6.10
2023-02-22T21:38:55.934Z,5.60
2023-02-22T21:41:27.521Z,6.00
2023-02-22T21:43:57.381Z,6.30
2023-02-22T21:46:26.287Z,5.60
2023-02-22T21:48:53.745Z,5.60
2023-02-22T21:51:25.442Z,5.90
2023-02-22T21:53:54.408Z,6.30
2023-02-22T21:56:27.582Z,5.40
2023-02-22T21:59:03.634Z,5.90
2023-02-22T22:01:33.509Z,5.50
2023-02-22T22:06:31.040Z,5.60
2023-02-22T22:09:00.102Z,5.90
2023-02-22T22:11:27.594Z,6.00
2023-02-22T22:13:58.779Z,6.10
2023-02-22T22:16:29.678Z,6.30
2023-02-22T22:18:57.615Z,6.70
2023-02-22T22:21:25.651Z,6.60
2023-02-22T22:23:56.196Z,5.10
2023-02-22T22:26:25.232Z,7.60
2023-02-22T22:28:58.596Z,5.70
2023-02-22T22:31:27.526Z,5.80
2023-02-22T22:33:56.307Z,6.60
2023-02-22T22:36:25.985Z,6.20
2023-02-22T22:38:57.225Z,7.30
2023-02-22T22:41:27.974Z,6.10
2023-02-22T22:43:55.829Z,7.40
2023-02-22T22:46:23.431Z,7.40
2023-02-22T22:48:50.946Z,6.00
2023-02-22T22:51:20.598Z,7.10
2023-02-22T22:53:49.245Z,5.80
2023-02-22T22:56:26.194Z,7.60
2023-02-22T22:58:56.654Z,4.20
2023-02-22T23:01:33.341Z,6.40
2023-02-22T23:04:03.491Z,7.10
2023-02-22T23:06:42.045Z,6.70
2023-02-22T23:09:14.586Z,7.50
2023-02-22T23:11:44.474Z,7.30
2023-02-22T23:14:14.828Z,7.50
2023-02-22T23:16:42.750Z,6.70
2023-02-22T23:19:10.315Z,7.80
2023-02-22T23:21:38.901Z,7.90
2023-02-22T23:24:07.729Z,7.50
2023-02-22T23:26:35.401Z,8.10
2023-02-22T23:29:03.210Z,6.80
2023-02-22T23:31:31.968Z,7.60
2023-02-22T23:33:59.538Z,7.80
2023-02-22T23:36:27.327Z,7.20
2023-02-22T23:38:54.999Z,8.40
2023-02-22T23:41:25.116Z,8.80
2023-02-22T23:43:52.814Z,7.10
2023-02-22T23:46:20.168Z,8.00
2023-02-22T23:48:52.167Z,8.70
2023-02-22T23:51:25.353Z,8.80
2023-02-22T23:53:55.665Z,9.00
2023-02-22T23:56:26.459Z,7.70
2023-02-22T23:58:57.074Z,7.30
